Time;durP1;ratioP1;P1;durP2;ratioP2;P2;SDS_P1;SDS_P2;PMS_P1;PMS_P2;Temp;Humidity;BMP_temperature;BMP_pressure;BME280_temperature;BME280_humidity;BME280_pressure;Samples;Min_cycle;Max_cycle;Signal;HPM_P1;HPM_P2
2024/04/08 00:00:19;;;;;;;0.30;0.30;;;;;;;;;;5063552;28;20302;-75
2024/04/08 00:02:45;;;;;;;0.60;0.60;;;;;;;;;;5043445;28;20723;-76
2024/04/08 00:05:19;;;;;;;0.40;0.40;;;;;;;;;;5071890;28;20227;-75
2024/04/08 00:07:46;;;;;;;0.30;0.30;;;;;;;;;;5062126;28;20219;-76
2024/04/08 00:10:12;;;;;;;0.40;0.40;;;;;;;;;;5082862;28;20219;-76
2024/04/08 00:12:42;;;;;;;0.40;0.40;;;;;;;;;;5045508;28;20226;-77
2024/04/08 00:15:08;;;;;;;0.30;0.30;;;;;;;;;;5049030;28;20582;-79
2024/04/08 00:17:34;;;;;;;0.50;0.50;;;;;;;;;;5042590;28;20216;-79
2024/04/08 00:20:00;;;;;;;0.55;0.55;;;;;;;;;;5046026;28;20225;-78
2024/04/08 00:22:25;;;;;;;0.30;0.30;;;;;;;;;;5034635;28;20514;-78
2024/04/08 00:24:54;;;;;;;0.30;0.30;;;;;;;;;;5037097;28;20277;-74
2024/04/08 00:27:20;;;;;;;0.45;0.45;;;;;;;;;;5057263;28;20238;-78
2024/04/08 00:29:46;;;;;;;0.60;0.60;;;;;;;;;;5043536;28;20235;-78
2024/04/08 00:32:12;;;;;;;1.35;1.10;;;;;;;;;;5056829;28;20227;-76
2024/04/08 00:34:39;;;;;;;0.30;0.30;;;;;;;;;;5048609;28;20725;-76
2024/04/08 00:37:05;;;;;;;0.30;0.30;;;;;;;;;;5043486;28;20226;-79
2024/04/08 00:39:30;;;;;;;0.30;0.30;;;;;;;;;;5057071;28;20284;-77
2024/04/08 00:41:56;;;;;;;0.30;0.30;;;;;;;;;;5041579;28;20226;-79
2024/04/08 00:44:21;;;;;;;0.40;0.40;;;;;;;;;;5049636;28;20783;-76
2024/04/08 00:46:47;;;;;;;1.02;1.02;;;;;;;;;;5056226;28;20219;-78
2024/04/08 00:49:14;;;;;;;0.30;0.30;;;;;;;;;;5048994;28;20742;-79
2024/04/08 00:51:43;;;;;;;0.47;0.47;;;;;;;;;;5041930;28;20280;-77
2024/04/08 00:54:08;;;;;;;1.08;1.05;;;;;;;;;;5049397;28;20226;-76
2024/04/08 00:56:36;;;;;;;0.35;0.35;;;;;;;;;;5055782;28;20219;-79
2024/04/08 00:59:03;;;;;;;0.32;0.32;;;;;;;;;;5057045;28;20223;-76
2024/04/08 01:01:29;;;;;;;0.75;0.75;;;;;;;;;;5048665;28;20708;-78
2024/04/08 01:03:56;;;;;;;1.63;1.52;;;;;;;;;;5041942;28;20219;-77
2024/04/08 01:06:22;;;;;;;0.30;0.30;;;;;;;;;;5049391;28;20432;-77
2024/04/08 01:08:47;;;;;;;0.40;0.40;;;;;;;;;;5041222;28;20738;-78
2024/04/08 01:11:13;;;;;;;0.60;0.60;;;;;;;;;;5042093;28;20235;-78
2024/04/08 01:13:39;;;;;;;0.40;0.40;;;;;;;;;;5042522;28;20323;-79
2024/04/08 01:16:05;;;;;;;0.30;0.30;;;;;;;;;;5049821;28;20230;-78
2024/04/08 01:18:31;;;;;;;0.30;0.30;;;;;;;;;;5058487;28;20223;-77
2024/04/08 01:20:56;;;;;;;0.30;0.30;;;;;;;;;;5056810;28;20238;-76
2024/04/08 01:23:24;;;;;;;0.30;0.30;;;;;;;;;;5049659;28;20234;-79
2024/04/08 01:25:50;;;;;;;0.35;0.35;;;;;;;;;;5059633;28;20215;-77
2024/04/08 01:28:16;;;;;;;0.40;0.40;;;;;;;;;;5042235;28;20227;-76
2024/04/08 01:30:42;;;;;;;0.30;0.30;;;;;;;;;;5039772;28;20219;-81
2024/04/08 01:33:10;;;;;;;0.43;0.43;;;;;;;;;;5043541;28;20222;-78
2024/04/08 01:35:35;;;;;;;0.30;0.30;;;;;;;;;;5054221;28;20223;-79
2024/04/08 01:38:01;;;;;;;0.40;0.40;;;;;;;;;;5056575;28;20226;-78
2024/04/08 01:40:26;;;;;;;0.30;0.30;;;;;;;;;;5042523;28;20231;-79
2024/04/08 01:42:52;;;;;;;0.68;0.68;;;;;;;;;;5057254;28;20230;-78
2024/04/08 01:45:18;;;;;;;0.65;0.65;;;;;;;;;;5051205;28;20223;-79
2024/04/08 01:47:43;;;;;;;0.63;0.63;;;;;;;;;;5041536;28;20230;-78
2024/04/08 01:50:09;;;;;;;0.30;0.30;;;;;;;;;;5038791;28;20275;-77
2024/04/08 01:52:34;;;;;;;0.30;0.30;;;;;;;;;;5049738;28;20277;-77
2024/04/08 01:55:03;;;;;;;0.30;0.30;;;;;;;;;;5060655;28;20234;-77
2024/04/08 01:57:28;;;;;;;0.30;0.30;;;;;;;;;;5044721;28;20220;-78
2024/04/08 01:59:54;;;;;;;0.40;0.40;;;;;;;;;;5043588;28;20231;-77
2024/04/08 02:02:20;;;;;;;0.80;0.80;;;;;;;;;;5060888;28;20231;-76
2024/04/08 02:04:45;;;;;;;0.40;0.40;;;;;;;;;;5044860;28;20230;-78
2024/04/08 02:07:11;;;;;;;0.40;0.40;;;;;;;;;;5046074;28;20231;-77
2024/04/08 02:10:02;;;;;;;1.50;1.20;;;;;;;;;;5062140;28;20223;-78
2024/04/08 02:12:27;;;;;;;0.40;0.40;;;;;;;;;;5061329;28;20223;-77
2024/04/08 02:14:53;;;;;;;0.95;0.95;;;;;;;;;;5045409;28;20232;-79
2024/04/08 02:17:19;;;;;;;0.30;0.30;;;;;;;;;;5040491;28;20224;-77
2024/04/08 02:19:45;;;;;;;0.30;0.30;;;;;;;;;;5057311;28;20251;-79
2024/04/08 02:22:10;;;;;;;1.23;1.00;;;;;;;;;;5058905;28;20235;-78
2024/04/08 02:24:38;;;;;;;0.40;0.40;;;;;;;;;;5060649;28;20227;-77
2024/04/08 02:27:03;;;;;;;1.67;1.58;;;;;;;;;;5053662;28;20223;-79
2024/04/08 02:29:32;;;;;;;0.68;0.60;;;;;;;;;;5059332;28;20721;-79
2024/04/08 02:31:57;;;;;;;3.20;1.48;;;;;;;;;;5046004;28;20585;-77
2024/04/08 02:34:22;;;;;;;0.82;0.82;;;;;;;;;;5045364;28;20238;-76
2024/04/08 02:36:48;;;;;;;0.20;0.20;;;;;;;;;;5057365;28;20227;-75
2024/04/08 02:39:14;;;;;;;0.38;0.35;;;;;;;;;;5053207;28;20220;-78
2024/04/08 02:41:39;;;;;;;1.33;1.17;;;;;;;;;;5059216;28;20253;-77
2024/04/08 02:44:05;;;;;;;0.30;0.30;;;;;;;;;;5045662;28;20315;-77
2024/04/08 02:46:30;;;;;;;0.38;0.38;;;;;;;;;;5059945;28;20314;-78
2024/04/08 02:48:56;;;;;;;0.30;0.30;;;;;;;;;;5057565;28;20310;-78
2024/04/08 02:51:21;;;;;;;0.63;0.63;;;;;;;;;;5059039;28;20239;-78
2024/04/08 02:53:48;;;;;;;3.53;3.30;;;;;;;;;;5043869;28;20761;-79
2024/04/08 02:56:13;;;;;;;0.30;0.30;;;;;;;;;;5042913;28;20226;-77
2024/04/08 02:58:39;;;;;;;0.40;0.40;;;;;;;;;;5042135;28;20218;-76
2024/04/08 03:01:13;;;;;;;0.40;0.40;;;;;;;;;;5042414;28;20253;-76
2024/04/08 03:03:38;;;;;;;0.40;0.40;;;;;;;;;;5050853;28;20221;-77
2024/04/08 03:06:08;;;;;;;0.30;0.30;;;;;;;;;;5043859;28;20224;-78
2024/04/08 03:08:35;;;;;;;0.30;0.30;;;;;;;;;;5060595;28;20738;-81
2024/04/08 03:11:04;;;;;;;0.30;0.30;;;;;;;;;;5072000;28;20250;-79
2024/04/08 03:13:30;;;;;;;0.30;0.30;;;;;;;;;;5044427;28;20227;-81
2024/04/08 03:15:56;;;;;;;0.30;0.30;;;;;;;;;;5043545;28;20673;-80
2024/04/08 03:18:23;;;;;;;0.30;0.30;;;;;;;;;;5057670;28;20223;-81
2024/04/08 03:20:58;;;;;;;0.47;0.47;;;;;;;;;;5035478;28;20242;-82
2024/04/08 03:23:24;;;;;;;0.30;0.30;;;;;;;;;;5054688;28;20222;-80
2024/04/08 03:25:58;;;;;;;0.50;0.50;;;;;;;;;;5059245;28;20238;-80
2024/04/08 03:28:24;;;;;;;0.63;0.63;;;;;;;;;;5061715;28;20226;-82
2024/04/08 03:30:50;;;;;;;0.30;0.30;;;;;;;;;;5049917;28;20234;-80
2024/04/08 03:33:20;;;;;;;0.30;0.30;;;;;;;;;;5070650;28;20234;-81
2024/04/08 03:35:45;;;;;;;0.20;0.20;;;;;;;;;;5062415;28;20227;-79
2024/04/08 03:38:11;;;;;;;0.60;0.60;;;;;;;;;;5044328;28;20246;-79
2024/04/08 03:40:36;;;;;;;0.70;0.70;;;;;;;;;;5044413;28;20225;-81
2024/04/08 03:43:02;;;;;;;0.97;0.63;;;;;;;;;;5041100;28;20705;-81
2024/04/08 03:45:27;;;;;;;0.30;0.30;;;;;;;;;;5051119;28;20223;-79
2024/04/08 03:47:54;;;;;;;0.30;0.30;;;;;;;;;;5066190;28;20868;-79
2024/04/08 03:50:19;;;;;;;0.30;0.30;;;;;;;;;;5042484;28;20219;-79
2024/04/08 03:52:46;;;;;;;0.43;0.43;;;;;;;;;;5042221;28;20716;-81
2024/04/08 03:55:16;;;;;;;0.30;0.30;;;;;;;;;;5043679;28;20234;-79
2024/04/08 03:57:42;;;;;;;0.30;0.30;;;;;;;;;;5049555;28;20223;-79
2024/04/08 04:00:08;;;;;;;0.30;0.30;;;;;;;;;;5057338;28;20600;-79
2024/04/08 04:02:33;;;;;;;0.30;0.30;;;;;;;;;;5053668;28;20227;-79
2024/04/08 04:04:58;;;;;;;0.30;0.30;;;;;;;;;;5042162;28;20218;-80
2024/04/08 04:07:24;;;;;;;0.20;0.20;;;;;;;;;;5051388;28;20221;-79
2024/04/08 04:09:49;;;;;;;0.30;0.30;;;;;;;;;;5044943;28;20211;-80
2024/04/08 04:12:15;;;;;;;0.30;0.30;;;;;;;;;;5077211;28;20226;-78
2024/04/08 04:14:42;;;;;;;0.30;0.30;;;;;;;;;;5059763;28;20223;-79
2024/04/08 04:17:08;;;;;;;0.30;0.30;;;;;;;;;;5052119;28;20234;-80
2024/04/08 04:19:34;;;;;;;0.30;0.30;;;;;;;;;;5044457;28;20215;-80
2024/04/08 04:21:59;;;;;;;2.10;1.70;;;;;;;;;;5044809;28;20219;-78
2024/04/08 04:24:24;;;;;;;0.40;0.40;;;;;;;;;;5060897;28;20238;-81
2024/04/08 04:26:50;;;;;;;0.30;0.30;;;;;;;;;;5058488;28;20238;-77
2024/04/08 04:29:16;;;;;;;0.30;0.30;;;;;;;;;;5069076;28;20225;-79
2024/04/08 04:31:44;;;;;;;0.30;0.30;;;;;;;;;;5044881;28;20494;-79
2024/04/08 04:34:10;;;;;;;0.30;0.30;;;;;;;;;;5052645;28;20238;-78
2024/04/08 04:36:36;;;;;;;0.30;0.30;;;;;;;;;;5043928;28;20215;-78
2024/04/08 04:39:03;;;;;;;0.20;0.20;;;;;;;;;;5052080;28;20227;-79
2024/04/08 04:41:28;;;;;;;0.20;0.20;;;;;;;;;;5061184;28;20715;-79
2024/04/08 04:43:54;;;;;;;0.30;0.30;;;;;;;;;;5043811;28;20295;-77
2024/04/08 04:46:19;;;;;;;0.30;0.30;;;;;;;;;;5045601;28;20223;-80
2024/04/08 04:48:45;;;;;;;0.30;0.30;;;;;;;;;;5054797;28;20220;-79
2024/04/08 04:51:10;;;;;;;0.30;0.30;;;;;;;;;;5042194;28;20234;-80
2024/04/08 04:53:37;;;;;;;0.33;0.33;;;;;;;;;;5062108;28;20215;-78
2024/04/08 04:56:02;;;;;;;0.33;0.33;;;;;;;;;;5043055;28;20223;-76
2024/04/08 04:58:28;;;;;;;0.40;0.40;;;;;;;;;;5036539;28;20276;-77
2024/04/08 05:00:53;;;;;;;0.40;0.40;;;;;;;;;;5038086;28;20235;-79
2024/04/08 05:03:19;;;;;;;0.33;0.33;;;;;;;;;;5060340;28;20239;-79
2024/04/08 05:05:55;;;;;;;0.30;0.30;;;;;;;;;;5058506;28;20264;-77
2024/04/08 05:08:21;;;;;;;0.30;0.30;;;;;;;;;;5044324;28;20231;-78
2024/04/08 05:10:47;;;;;;;0.30;0.30;;;;;;;;;;5061326;28;20222;-77
2024/04/08 05:13:15;;;;;;;0.30;0.30;;;;;;;;;;5062735;28;20254;-77
2024/04/08 05:15:41;;;;;;;0.30;0.30;;;;;;;;;;5048187;28;20264;-78
2024/04/08 05:18:12;;;;;;;0.30;0.30;;;;;;;;;;5047231;28;20439;-79
2024/04/08 05:20:40;;;;;;;0.30;0.30;;;;;;;;;;5069788;28;20225;-77
2024/04/08 05:23:11;;;;;;;0.40;0.40;;;;;;;;;;5046538;28;20227;-78
2024/04/08 05:25:38;;;;;;;0.30;0.30;;;;;;;;;;5062261;28;20219;-80
2024/04/08 05:28:04;;;;;;;0.30;0.30;;;;;;;;;;5063614;28;20231;-77
2024/04/08 05:30:29;;;;;;;0.40;0.40;;;;;;;;;;5052524;28;20595;-79
2024/04/08 05:32:55;;;;;;;0.30;0.30;;;;;;;;;;5063488;28;20269;-80
2024/04/08 05:35:20;;;;;;;0.20;0.20;;;;;;;;;;5064230;28;20223;-78
2024/04/08 05:37:46;;;;;;;0.30;0.30;;;;;;;;;;5063456;28;20306;-78
2024/04/08 05:40:13;;;;;;;0.30;0.30;;;;;;;;;;5054952;28;20223;-78
2024/04/08 05:42:40;;;;;;;0.30;0.30;;;;;;;;;;5055664;28;20220;-78
2024/04/08 05:45:06;;;;;;;0.97;0.73;;;;;;;;;;5053643;28;20720;-77
2024/04/08 05:47:31;;;;;;;0.30;0.30;;;;;;;;;;5060616;28;20211;-80
2024/04/08 05:49:57;;;;;;;0.30;0.30;;;;;;;;;;5055673;28;20226;-80
2024/04/08 05:52:22;;;;;;;0.30;0.30;;;;;;;;;;5045926;28;20231;-79
2024/04/08 05:54:48;;;;;;;0.30;0.30;;;;;;;;;;5058179;28;20235;-78
2024/04/08 05:57:14;;;;;;;0.20;0.20;;;;;;;;;;5070649;28;20219;-79
2024/04/08 05:59:40;;;;;;;0.30;0.30;;;;;;;;;;5060233;28;20318;-78
2024/04/08 06:02:06;;;;;;;0.30;0.30;;;;;;;;;;5044344;28;20277;-80
2024/04/08 06:04:32;;;;;;;0.50;0.50;;;;;;;;;;5043925;28;20225;-80
2024/04/08 06:06:58;;;;;;;0.40;0.40;;;;;;;;;;5047237;28;20223;-80
2024/04/08 06:09:24;;;;;;;0.40;0.40;;;;;;;;;;5050729;28;20223;-78
2024/04/08 06:11:50;;;;;;;0.80;0.80;;;;;;;;;;5058764;28;20235;-79
2024/04/08 06:14:16;;;;;;;0.40;0.40;;;;;;;;;;5044086;28;20230;-78
2024/04/08 06:16:41;;;;;;;1.13;1.13;;;;;;;;;;5052296;28;20218;-77
2024/04/08 06:19:08;;;;;;;0.40;0.40;;;;;;;;;;5075050;28;20223;-78
2024/04/08 06:21:34;;;;;;;0.20;0.20;;;;;;;;;;5052042;28;20238;-77
2024/04/08 06:24:00;;;;;;;0.40;0.40;;;;;;;;;;5058991;28;20226;-80
2024/04/08 06:26:26;;;;;;;0.60;0.60;;;;;;;;;;5060829;28;20726;-78
2024/04/08 06:28:52;;;;;;;0.30;0.30;;;;;;;;;;5043874;28;20235;-80
2024/04/08 06:31:17;;;;;;;0.30;0.30;;;;;;;;;;5043764;28;20231;-78
2024/04/08 06:33:43;;;;;;;0.47;0.47;;;;;;;;;;5051684;28;20229;-78
2024/04/08 06:36:12;;;;;;;0.30;0.30;;;;;;;;;;5075815;28;20220;-77
2024/04/08 06:38:38;;;;;;;0.30;0.30;;;;;;;;;;5049852;28;20224;-76
2024/04/08 06:41:04;;;;;;;3.53;0.45;;;;;;;;;;5060073;28;20254;-79
2024/04/08 06:43:29;;;;;;;0.83;0.83;;;;;;;;;;5051356;28;20241;-78
2024/04/08 06:45:56;;;;;;;0.30;0.30;;;;;;;;;;5044625;28;20223;-77
2024/04/08 06:48:22;;;;;;;0.40;0.40;;;;;;;;;;5051587;28;20599;-78
2024/04/08 06:50:48;;;;;;;0.85;0.85;;;;;;;;;;5042803;28;20739;-77
2024/04/08 06:53:14;;;;;;;1.67;1.20;;;;;;;;;;5051391;28;20227;-77
2024/04/08 06:55:40;;;;;;;0.40;0.40;;;;;;;;;;5050756;28;20226;-76
2024/04/08 06:58:09;;;;;;;0.30;0.30;;;;;;;;;;5059315;28;20717;-79
2024/04/08 07:00:35;;;;;;;1.02;1.02;;;;;;;;;;5044206;28;20703;-77
2024/04/08 07:03:01;;;;;;;0.30;0.30;;;;;;;;;;5059292;28;20230;-77
2024/04/08 07:05:27;;;;;;;0.30;0.30;;;;;;;;;;5058591;28;20708;-77
2024/04/08 07:07:53;;;;;;;0.50;0.50;;;;;;;;;;5043827;28;20235;-77
2024/04/08 07:10:19;;;;;;;0.50;0.50;;;;;;;;;;5060192;28;20227;-80
2024/04/08 07:12:44;;;;;;;0.30;0.30;;;;;;;;;;5057187;28;20215;-81
2024/04/08 07:15:14;;;;;;;0.30;0.30;;;;;;;;;;5067498;28;20604;-78
2024/04/08 07:17:39;;;;;;;0.95;0.85;;;;;;;;;;5059739;28;20222;-79
2024/04/08 07:20:05;;;;;;;0.45;0.45;;;;;;;;;;5042635;28;20234;-78
2024/04/08 07:22:31;;;;;;;0.55;0.55;;;;;;;;;;5058722;28;20250;-77
2024/04/08 07:24:56;;;;;;;0.30;0.30;;;;;;;;;;5042964;28;20227;-78
2024/04/08 07:27:22;;;;;;;1.75;0.63;;;;;;;;;;5043360;28;20226;-79
2024/04/08 07:29:50;;;;;;;0.85;0.85;;;;;;;;;;5057009;28;20266;-78
2024/04/08 07:32:16;;;;;;;1.88;1.77;;;;;;;;;;5056614;28;20749;-77
2024/04/08 07:34:41;;;;;;;0.88;0.88;;;;;;;;;;5040225;28;20328;-79
2024/04/08 07:37:07;;;;;;;0.55;0.55;;;;;;;;;;5042746;28;20267;-77
2024/04/08 07:39:33;;;;;;;1.15;0.65;;;;;;;;;;5057957;28;20273;-78
2024/04/08 07:41:58;;;;;;;0.68;0.68;;;;;;;;;;5048487;28;20230;-77
2024/04/08 07:44:24;;;;;;;1.23;0.88;;;;;;;;;;5038627;28;20635;-77
2024/04/08 07:46:49;;;;;;;0.35;0.35;;;;;;;;;;5039651;28;20230;-76
2024/04/08 07:49:15;;;;;;;0.40;0.40;;;;;;;;;;5059158;28;20250;-77
2024/04/08 07:53:38;;;;;;;2.25;1.48;;;;;;;;;;5456929;25;20646;-80
2024/04/08 07:56:05;;;;;;;0.60;0.60;;;;;;;;;;5480577;26;20251;-78
2024/04/08 07:58:32;;;;;;;0.85;0.85;;;;;;;;;;5464230;26;20259;-80
2024/04/08 08:01:04;;;;;;;0.35;0.35;;;;;;;;;;5448033;26;20737;-80
2024/04/08 08:03:31;;;;;;;0.50;0.50;;;;;;;;;;5410264;26;20360;-77
2024/04/08 08:05:58;;;;;;;0.63;0.63;;;;;;;;;;5391079;26;20798;-81
2024/04/08 08:08:27;;;;;;;0.47;0.47;;;;;;;;;;5380548;26;20713;-80
2024/04/08 08:10:57;;;;;;;0.65;0.65;;;;;;;;;;5375883;26;20256;-79
2024/04/08 08:13:24;;;;;;;0.63;0.63;;;;;;;;;;5375216;26;20265;-78
2024/04/08 08:15:57;;;;;;;0.50;0.50;;;;;;;;;;5374877;26;20296;-80
2024/04/08 08:18:24;;;;;;;0.30;0.30;;;;;;;;;;5376491;26;20829;-79
2024/04/08 08:20:52;;;;;;;6.63;1.10;;;;;;;;;;5376961;26;20258;-77
2024/04/08 08:23:19;;;;;;;0.80;0.80;;;;;;;;;;5377224;26;20398;-79
2024/04/08 08:25:47;;;;;;;0.63;0.63;;;;;;;;;;5375418;26;20261;-78
2024/04/08 08:28:14;;;;;;;0.68;0.68;;;;;;;;;;5379195;26;20262;-80
2024/04/08 08:30:46;;;;;;;5.47;1.88;;;;;;;;;;5373754;26;20742;-78
2024/04/08 08:33:13;;;;;;;0.60;0.60;;;;;;;;;;5375075;26;20368;-80
2024/04/08 08:35:40;;;;;;;0.77;0.77;;;;;;;;;;5376470;26;20328;-80
2024/04/08 08:38:06;;;;;;;2.92;0.88;;;;;;;;;;5379280;26;20662;-80
2024/04/08 08:40:41;;;;;;;0.45;0.45;;;;;;;;;;5376327;26;20313;-79
2024/04/08 08:43:08;;;;;;;1.00;1.00;;;;;;;;;;5387874;26;20265;-81
2024/04/08 08:45:41;;;;;;;1.13;1.02;;;;;;;;;;5403626;26;20318;-81
2024/04/08 08:48:08;;;;;;;0.70;0.70;;;;;;;;;;5379270;26;20261;-77
2024/04/08 08:50:36;;;;;;;0.63;0.63;;;;;;;;;;5376095;26;20611;-78
2024/04/08 08:53:04;;;;;;;0.43;0.43;;;;;;;;;;5403231;26;20285;-80
2024/04/08 08:55:32;;;;;;;0.45;0.45;;;;;;;;;;5374039;26;20300;-75
2024/04/08 08:57:59;;;;;;;0.95;0.95;;;;;;;;;;5374447;26;20255;-75
2024/04/08 09:00:30;;;;;;;0.70;0.70;;;;;;;;;;5373965;26;20516;-74
2024/04/08 09:02:59;;;;;;;1.23;0.60;;;;;;;;;;5384842;26;20750;-78
2024/04/08 09:05:25;;;;;;;0.50;0.50;;;;;;;;;;5362676;26;20822;-78
2024/04/08 09:07:52;;;;;;;30.30;1.17;;;;;;;;;;5365467;26;20310;-77
2024/04/08 09:10:20;;;;;;;0.75;0.75;;;;;;;;;;5388439;26;20677;-75
2024/04/08 09:12:47;;;;;;;0.65;0.65;;;;;;;;;;5374291;26;20372;-77
2024/04/08 09:15:13;;;;;;;1.27;1.17;;;;;;;;;;5389312;26;20361;-75
2024/04/08 09:17:41;;;;;;;0.77;0.77;;;;;;;;;;5389550;26;20257;-75
2024/04/08 09:20:13;;;;;;;1.23;1.23;;;;;;;;;;5360467;26;20261;-75
2024/04/08 09:22:40;;;;;;;0.57;0.57;;;;;;;;;;5360760;26;20379;-76
2024/04/08 09:25:12;;;;;;;4.30;2.20;;;;;;;;;;5389864;26;20297;-75
2024/04/08 09:27:39;;;;;;;1.35;1.25;;;;;;;;;;5359102;26;20711;-75
2024/04/08 09:30:07;;;;;;;1.20;1.05;;;;;;;;;;5357027;26;20296;-78
2024/04/08 09:32:34;;;;;;;2.47;1.55;;;;;;;;;;5355773;26;20317;-77
2024/04/08 09:35:00;;;;;;;0.70;0.70;;;;;;;;;;5359031;26;20334;-77
2024/04/08 09:37:28;;;;;;;0.45;0.45;;;;;;;;;;5359187;26;20266;-75
2024/04/08 09:39:55;;;;;;;1.05;1.05;;;;;;;;;;5370691;26;20391;-75
2024/04/08 09:42:22;;;;;;;0.82;0.82;;;;;;;;;;5358239;26;20257;-75
2024/04/08 09:44:49;;;;;;;1.10;1.08;;;;;;;;;;5358275;26;20312;-77
2024/04/08 09:47:17;;;;;;;6.22;1.42;;;;;;;;;;5372987;26;20355;-76
2024/04/08 09:49:44;;;;;;;0.98;0.98;;;;;;;;;;5357307;26;20679;-77
2024/04/08 09:52:16;;;;;;;0.38;0.38;;;;;;;;;;5363403;26;20885;-77
2024/04/08 09:54:43;;;;;;;1.95;1.05;;;;;;;;;;5357696;26;20308;-75
2024/04/08 09:57:15;;;;;;;0.60;0.60;;;;;;;;;;5359156;26;20257;-74
2024/04/08 09:59:43;;;;;;;0.43;0.43;;;;;;;;;;5356841;26;20255;-77
2024/04/08 10:02:24;;;;;;;1.00;0.90;;;;;;;;;;5358726;26;20418;-75
2024/04/08 10:04:56;;;;;;;0.50;0.50;;;;;;;;;;5357988;26;20265;-75
2024/04/08 10:07:24;;;;;;;1.27;1.17;;;;;;;;;;5367686;26;20728;-76
2024/04/08 10:09:52;;;;;;;0.60;0.60;;;;;;;;;;5356931;26;20293;-76
2024/04/08 10:12:29;;;;;;;1.48;0.98;;;;;;;;;;5363552;26;20334;-75
2024/04/08 10:15:07;;;;;;;0.57;0.57;;;;;;;;;;5367974;26;20300;-74
2024/04/08 10:17:36;;;;;;;0.60;0.60;;;;;;;;;;5367117;26;20303;-77
2024/04/08 10:20:06;;;;;;;0.50;0.50;;;;;;;;;;5362701;26;20258;-76
2024/04/08 10:22:34;;;;;;;0.50;0.50;;;;;;;;;;5363077;26;20261;-77
2024/04/08 10:25:01;;;;;;;0.57;0.57;;;;;;;;;;5375133;26;20261;-77
2024/04/08 10:27:28;;;;;;;1.10;1.10;;;;;;;;;;5370106;26;20290;-76
2024/04/08 10:29:56;;;;;;;0.52;0.52;;;;;;;;;;5382250;26;20293;-76
2024/04/08 10:32:23;;;;;;;0.68;0.68;;;;;;;;;;5392331;26;20308;-76
2024/04/08 10:34:50;;;;;;;3.75;0.75;;;;;;;;;;5360775;26;20841;-78
2024/04/08 10:37:17;;;;;;;0.55;0.55;;;;;;;;;;5364909;26;20797;-78
2024/04/08 10:39:44;;;;;;;1.92;1.48;;;;;;;;;;5362518;26;20309;-78
2024/04/08 10:42:13;;;;;;;3.13;1.40;;;;;;;;;;5388290;26;20322;-77
2024/04/08 10:44:43;;;;;;;1.10;1.05;;;;;;;;;;5385403;26;20265;-78
2024/04/08 10:47:10;;;;;;;0.77;0.70;;;;;;;;;;5386464;26;20293;-77
2024/04/08 10:49:40;;;;;;;1.42;0.85;;;;;;;;;;5359282;26;20301;-76
2024/04/08 10:52:10;;;;;;;1.15;1.05;;;;;;;;;;5358087;26;20263;-78
2024/04/08 10:54:38;;;;;;;0.40;0.40;;;;;;;;;;5383696;26;20313;-78
2024/04/08 10:57:04;;;;;;;0.80;0.80;;;;;;;;;;5385564;26;20602;-77
2024/04/08 10:59:31;;;;;;;0.80;0.63;;;;;;;;;;5357409;26;20258;-74
2024/04/08 11:01:58;;;;;;;0.98;0.88;;;;;;;;;;5358071;26;20362;-76
2024/04/08 11:04:24;;;;;;;0.95;0.95;;;;;;;;;;5354696;26;20257;-75
2024/04/08 11:06:51;;;;;;;5.13;1.33;;;;;;;;;;5385475;26;20648;-75
2024/04/08 11:09:18;;;;;;;1.00;0.70;;;;;;;;;;5371194;26;20325;-76
2024/04/08 11:11:44;;;;;;;1.17;1.15;;;;;;;;;;5358497;26;20301;-76
2024/04/08 11:14:11;;;;;;;0.95;0.95;;;;;;;;;;5359659;26;20758;-76
2024/04/08 11:16:42;;;;;;;0.30;0.30;;;;;;;;;;5356670;26;20785;-75
2024/04/08 11:19:10;;;;;;;0.55;0.55;;;;;;;;;;5359327;26;20261;-75
2024/04/08 11:21:37;;;;;;;1.13;0.98;;;;;;;;;;5369521;26;20304;-76
2024/04/08 11:24:10;;;;;;;0.70;0.70;;;;;;;;;;5359028;26;20261;-74
2024/04/08 11:26:37;;;;;;;1.10;0.93;;;;;;;;;;5355803;26;20325;-75
2024/04/08 11:29:21;;;;;;;1.02;0.82;;;;;;;;;;5358146;26;20293;-74
2024/04/08 11:31:48;;;;;;;0.95;0.88;;;;;;;;;;5371055;26;20300;-75
2024/04/08 11:34:14;;;;;;;0.50;0.50;;;;;;;;;;5358637;26;20814;-75
2024/04/08 11:36:41;;;;;;;1.23;0.88;;;;;;;;;;5357987;26;20257;-74
2024/04/08 11:39:11;;;;;;;0.40;0.40;;;;;;;;;;5357015;26;20269;-75
2024/04/08 11:41:37;;;;;;;0.52;0.40;;;;;;;;;;5359212;26;20607;-75
2024/04/08 11:44:04;;;;;;;1.38;0.52;;;;;;;;;;5357891;26;20262;-75
2024/04/08 11:46:30;;;;;;;0.55;0.55;;;;;;;;;;5357459;26;20310;-76
2024/04/08 11:48:57;;;;;;;3.45;1.05;;;;;;;;;;5356479;26;20598;-76
2024/04/08 11:51:24;;;;;;;0.93;0.93;;;;;;;;;;5385226;26;20266;-75
2024/04/08 11:53:51;;;;;;;0.93;0.93;;;;;;;;;;5369381;26;20304;-75
2024/04/08 11:56:38;;;;;;;2.08;1.27;;;;;;;;;;5357847;26;20328;-76
2024/04/08 11:59:05;;;;;;;9.90;1.00;;;;;;;;;;5360616;26;20316;-75
2024/04/08 12:01:32;;;;;;;1.05;1.05;;;;;;;;;;5358042;26;20254;-75
2024/04/08 12:03:58;;;;;;;0.70;0.70;;;;;;;;;;5387571;26;20790;-76
2024/04/08 12:06:24;;;;;;;1.75;0.77;;;;;;;;;;5359486;26;20338;-77
2024/04/08 12:08:51;;;;;;;0.68;0.68;;;;;;;;;;5359058;26;20791;-76
2024/04/08 12:11:18;;;;;;;0.95;0.95;;;;;;;;;;5357454;26;20262;-76
2024/04/08 12:13:45;;;;;;;1.25;1.25;;;;;;;;;;5360478;26;20262;-75
2024/04/08 12:16:12;;;;;;;0.63;0.63;;;;;;;;;;5358361;26;20263;-75
2024/04/08 12:18:38;;;;;;;0.77;0.77;;;;;;;;;;5354506;26;20254;-76
2024/04/08 12:21:05;;;;;;;0.88;0.88;;;;;;;;;;5356429;26;20258;-75
2024/04/08 12:23:31;;;;;;;1.48;1.38;;;;;;;;;;5384907;26;20263;-76
2024/04/08 12:25:58;;;;;;;0.35;0.35;;;;;;;;;;5356877;26;20309;-75
2024/04/08 12:28:24;;;;;;;1.15;1.08;;;;;;;;;;5386908;26;20313;-76
2024/04/08 12:30:53;;;;;;;0.65;0.65;;;;;;;;;;5358980;26;20259;-75
2024/04/08 12:33:24;;;;;;;10.05;0.98;;;;;;;;;;5384893;26;20396;-75
2024/04/08 12:35:50;;;;;;;1.70;1.00;;;;;;;;;;5385869;26;20356;-75
2024/04/08 12:38:19;;;;;;;0.50;0.50;;;;;;;;;;5359325;26;20269;-75
2024/04/08 12:40:46;;;;;;;9.13;0.88;;;;;;;;;;5389742;26;20359;-75
2024/04/08 12:43:14;;;;;;;0.70;0.70;;;;;;;;;;5362583;26;20271;-75
2024/04/08 12:45:40;;;;;;;0.70;0.70;;;;;;;;;;5388668;26;20285;-75
2024/04/08 12:48:07;;;;;;;3.05;1.98;;;;;;;;;;5372433;26;20340;-75
2024/04/08 12:50:36;;;;;;;31.50;1.40;;;;;;;;;;5359631;26;20672;-75
2024/04/08 12:53:03;;;;;;;0.30;0.30;;;;;;;;;;5362577;26;20744;-74
2024/04/08 12:55:30;;;;;;;2.25;1.08;;;;;;;;;;5366869;26;21360;-75
2024/04/08 12:57:56;;;;;;;0.60;0.60;;;;;;;;;;5360006;26;20257;-74
2024/04/08 13:00:23;;;;;;;2.15;1.80;;;;;;;;;;5390855;26;20761;-75
2024/04/08 13:02:50;;;;;;;0.70;0.70;;;;;;;;;;5390433;26;20256;-76
2024/04/08 13:05:18;;;;;;;0.55;0.55;;;;;;;;;;5384153;26;20259;-74
2024/04/08 13:07:44;;;;;;;1.08;0.95;;;;;;;;;;5388852;26;20296;-74
2024/04/08 13:10:11;;;;;;;5.47;1.05;;;;;;;;;;5358710;26;20672;-74
2024/04/08 13:12:38;;;;;;;0.77;0.77;;;;;;;;;;5361001;26;20270;-73
2024/04/08 13:15:05;;;;;;;0.52;0.52;;;;;;;;;;5357551;26;20261;-74
2024/04/08 13:17:33;;;;;;;1.17;1.13;;;;;;;;;;5361958;26;20314;-74
2024/04/08 13:19:59;;;;;;;0.80;0.73;;;;;;;;;;5358744;26;20263;-74
2024/04/08 13:22:26;;;;;;;0.93;0.93;;;;;;;;;;5358757;26;20316;-74
2024/04/08 13:24:53;;;;;;;0.60;0.60;;;;;;;;;;5356826;26;20253;-73
2024/04/08 13:27:19;;;;;;;11.32;1.15;;;;;;;;;;5359011;26;20338;-74
2024/04/08 13:29:46;;;;;;;3.92;2.10;;;;;;;;;;5357442;26;20877;-74
2024/04/08 13:32:13;;;;;;;0.75;0.50;;;;;;;;;;5359685;26;20261;-74
2024/04/08 13:34:39;;;;;;;0.77;0.77;;;;;;;;;;5386467;26;20255;-74
2024/04/08 13:37:07;;;;;;;5.60;1.92;;;;;;;;;;5359688;26;20250;-74
2024/04/08 13:39:34;;;;;;;0.70;0.70;;;;;;;;;;5387716;26;20778;-74
2024/04/08 13:42:02;;;;;;;0.77;0.77;;;;;;;;;;5359551;26;20361;-74
2024/04/08 13:44:29;;;;;;;1.13;1.13;;;;;;;;;;5358617;26;20270;-74
2024/04/08 13:46:56;;;;;;;0.63;0.63;;;;;;;;;;5359826;26;20262;-77
2024/04/08 13:49:23;;;;;;;1.35;1.23;;;;;;;;;;5360424;26;20658;-76
2024/04/08 13:51:54;;;;;;;0.40;0.40;;;;;;;;;;5362290;26;21014;-76
2024/04/08 13:54:28;;;;;;;5.15;1.70;;;;;;;;;;5358953;26;20308;-76
2024/04/08 13:56:55;;;;;;;1.30;1.20;;;;;;;;;;5385898;26;20258;-76
2024/04/08 13:59:21;;;;;;;1.73;1.63;;;;;;;;;;5367846;26;20597;-76
2024/04/08 14:01:48;;;;;;;0.90;0.90;;;;;;;;;;5393657;26;20881;-77
2024/04/08 14:04:16;;;;;;;4.78;0.80;;;;;;;;;;5368996;26;20900;-76
2024/04/08 14:06:42;;;;;;;0.40;0.40;;;;;;;;;;5358761;26;20348;-76
2024/04/08 14:09:11;;;;;;;0.65;0.65;;;;;;;;;;5384721;26;20297;-76
2024/04/08 14:11:38;;;;;;;1.45;1.00;;;;;;;;;;5369054;26;20262;-76
2024/04/08 14:14:07;;;;;;;0.45;0.45;;;;;;;;;;5359113;26;20251;-75
2024/04/08 14:16:33;;;;;;;1.38;0.88;;;;;;;;;;5360390;26;20296;-76
2024/04/08 14:19:03;;;;;;;0.60;0.60;;;;;;;;;;5359650;26;20623;-76
2024/04/08 14:21:29;;;;;;;1.08;1.05;;;;;;;;;;5358433;26;21035;-76
2024/04/08 14:23:56;;;;;;;0.88;0.88;;;;;;;;;;5361167;26;20612;-75
2024/04/08 14:26:23;;;;;;;1.38;1.02;;;;;;;;;;5355083;26;20285;-75
2024/04/08 14:28:49;;;;;;;0.88;0.85;;;;;;;;;;5366411;26;20751;-76
2024/04/08 14:31:16;;;;;;;0.80;0.80;;;;;;;;;;5361212;26;20318;-76
2024/04/08 14:33:42;;;;;;;1.15;1.05;;;;;;;;;;5356830;26;20747;-73
2024/04/08 14:36:09;;;;;;;0.77;0.77;;;;;;;;;;5356821;26;23059;-74
2024/04/08 14:38:36;;;;;;;1.00;0.98;;;;;;;;;;5357289;26;20261;-76
2024/04/08 14:41:24;;;;;;;0.68;0.68;;;;;;;;;;5380977;26;20743;-73
2024/04/08 14:43:51;;;;;;;0.43;0.43;;;;;;;;;;5359658;26;20259;-74